Gas Snapper — V7TZ3 — position and weather

sailwx.info

Track history (hours):
 
Tides and Currents Weather Stations Pressure Air Temp Water Temp Dewpoint Dewpoint Depression Visibility Wind Speed Wind Dir Waves Ship Positions

Gas Snapper

Last reported at 2014-Dec-19 10:08 UTC. Time now 2014-Dec-21 21:33 UTC.
Position N 39°10' W 009°57'.

Length 174 m; draft 10.3 m.

Type: Ship (hazmat cat D). MMSI: 538003911.

Date/timePositionNaut miles runAvg speedWind from/ knotsBaromVisibWave heightAir tempDewpointWater temp
2014-Dec-19 10:08N 39°10' W 009°57'1114.4
2014-Dec-19 09:22N 38°59' W 009°57'1214.5
2014-Dec-19 08:33N 38°47' W 009°57'1414.4
2014-Dec-19 07:33N 38°33' W 009°55'1514.1
2014-Dec-19 06:31N 38°19' W 009°51'1414.1
2014-Dec-19 05:33N 38°06' W 009°46'4314.3
2014-Dec-19 02:33N 37°24' W 009°34'2014.5
2014-Dec-19 01:12N 37°05' W 009°29'1014.5
2014-Dec-19 00:32N 36°55' W 009°26'2813.9
2014-Dec-18 22:33N 36°38' W 008°59'5315.6
2014-Dec-18 19:09N 36°23' W 007°56'1115.7
2014-Dec-18 18:28N 36°20' W 007°43'1615.7
2014-Dec-18 17:28N 36°15' W 007°25'9014.6
2014-Dec-18 11:16N 35°57' W 005°35'913.2
2014-Dec-18 10:34N 36°00' W 005°24'  
2014-Dec-15 18:19N 36°31' E 013°48'2815.0
2014-Dec-15 16:28N 36°24' E 014°22'45315.1
2014-Dec-14 10:26N 36°31' E 023°45'1415.7
2014-Dec-14 09:34N 36°42' E 023°57'1515.4
2014-Dec-14 08:34N 36°56' E 024°04'1615.7
2014-Dec-14 07:34N 37°11' E 024°10'1615.9
2014-Dec-14 06:34N 37°25' E 024°17'1616.0
2014-Dec-14 05:33N 37°38' E 024°29'3316.3
2014-Dec-14 03:34N 38°09' E 024°45'277 8.1
2014-Dec-12 17:33N 41°17' E 029°08'8 7.9
2014-Dec-12 16:32N 41°25' E 029°10'  
Track history (hours):
 
Tides and Currents Weather Stations Pressure Air Temp Water Temp Dewpoint Dewpoint Depression Visibility Wind Speed Wind Dir Waves Ship Positions

Gas Snapper

Last reported at 2014-Dec-19 10:08 UTC. Time now 2014-Dec-21 21:33 UTC.
Position N 39°10' W 009°57'.

Length 174 m; draft 10.3 m.

Type: Ship (hazmat cat D). MMSI: 538003911.

Date/timePositionNaut miles runAvg speedWind from/ knotsBaromVisibWave heightAir tempDewpointWater temp
2014-Dec-19 10:08N 39°10' W 009°57'1114.4
2014-Dec-19 09:22N 38°59' W 009°57'1214.5
2014-Dec-19 08:33N 38°47' W 009°57'1414.4
2014-Dec-19 07:33N 38°33' W 009°55'1514.1
2014-Dec-19 06:31N 38°19' W 009°51'1414.1
2014-Dec-19 05:33N 38°06' W 009°46'4314.3
2014-Dec-19 02:33N 37°24' W 009°34'2014.5
2014-Dec-19 01:12N 37°05' W 009°29'1014.5
2014-Dec-19 00:32N 36°55' W 009°26'2813.9
2014-Dec-18 22:33N 36°38' W 008°59'5315.6
2014-Dec-18 19:09N 36°23' W 007°56'1115.7
2014-Dec-18 18:28N 36°20' W 007°43'1615.7
2014-Dec-18 17:28N 36°15' W 007°25'9014.6
2014-Dec-18 11:16N 35°57' W 005°35'913.2
2014-Dec-18 10:34N 36°00' W 005°24'  
2014-Dec-15 18:19N 36°31' E 013°48'2815.0
2014-Dec-15 16:28N 36°24' E 014°22'45315.1
2014-Dec-14 10:26N 36°31' E 023°45'1415.7
2014-Dec-14 09:34N 36°42' E 023°57'1515.4
2014-Dec-14 08:34N 36°56' E 024°04'1615.7
2014-Dec-14 07:34N 37°11' E 024°10'1615.9
2014-Dec-14 06:34N 37°25' E 024°17'1616.0
2014-Dec-14 05:33N 37°38' E 024°29'3316.3
2014-Dec-14 03:34N 38°09' E 024°45'277 8.1
2014-Dec-12 17:33N 41°17' E 029°08'8 7.9
2014-Dec-12 16:32N 41°25' E 029°10'  

Dump ship's entire track history